createdAt,value
2023-03-04T00:01:37.834Z,12.53
2023-03-04T00:04:27.535Z,12.13
2023-03-04T00:07:19.779Z,12.50
2023-03-04T00:10:13.208Z,11.40
2023-03-04T00:13:02.928Z,11.93
2023-03-04T00:15:52.627Z,12.50
2023-03-04T00:18:42.706Z,11.97
2023-03-04T00:21:32.979Z,10.63
2023-03-04T00:24:22.817Z,9.13
2023-03-04T00:27:14.587Z,10.83
2023-03-04T00:30:04.638Z,11.50
2023-03-04T00:32:54.527Z,8.43
2023-03-04T00:35:44.816Z,11.20
2023-03-04T00:38:34.526Z,11.17
2023-03-04T00:41:24.594Z,11.93
2023-03-04T00:44:16.109Z,12.00
2023-03-04T00:47:05.546Z,10.53
2023-03-04T00:49:55.356Z,11.23
2023-03-04T00:52:44.964Z,11.00
2023-03-04T00:55:34.872Z,11.23
2023-03-04T00:58:24.509Z,11.47
2023-03-04T01:01:15.839Z,7.90
2023-03-04T01:04:05.672Z,10.80
2023-03-04T01:06:55.279Z,11.63
2023-03-04T01:09:45.245Z,10.17
2023-03-04T01:12:35.163Z,11.43
2023-03-04T01:15:24.843Z,11.07
2023-03-04T01:18:20.191Z,9.80
2023-03-04T01:21:09.943Z,11.40
2023-03-04T01:24:00.144Z,10.93
2023-03-04T01:26:50.385Z,10.40
2023-03-04T01:29:40.602Z,11.03
2023-03-04T01:32:30.705Z,11.00
2023-03-04T01:35:21.915Z,11.37
2023-03-04T01:38:11.592Z,11.70
2023-03-04T01:41:01.864Z,10.90
2023-03-04T01:43:53.164Z,10.53
2023-03-04T01:46:45.103Z,10.57
2023-03-04T01:49:36.193Z,10.57
2023-03-04T01:52:29.708Z,10.33
2023-03-04T01:55:22.606Z,11.20
2023-03-04T01:58:13.838Z,10.87
2023-03-04T02:01:03.966Z,11.70
2023-03-04T02:03:53.581Z,11.20
2023-03-04T02:06:44.714Z,11.17
2023-03-04T02:09:36.786Z,10.70
2023-03-04T02:12:26.562Z,11.60
2023-03-04T02:15:16.400Z,12.13
2023-03-04T02:18:16.176Z,11.00
2023-03-04T02:21:13.591Z,10.43
2023-03-04T02:24:14.321Z,12.20
2023-03-04T02:27:05.740Z,11.27
2023-03-04T02:29:55.592Z,11.37
2023-03-04T02:32:45.186Z,11.13
2023-03-04T02:35:35.115Z,11.67
2023-03-04T02:38:24.687Z,11.83
2023-03-04T02:41:16.308Z,12.13
2023-03-04T02:44:19.392Z,12.03
2023-03-04T02:47:11.808Z,11.93
2023-03-04T02:50:01.661Z,11.37
2023-03-04T02:52:51.368Z,12.23
2023-03-04T02:55:42.949Z,11.00
2023-03-04T02:58:32.799Z,11.57
2023-03-04T03:01:23.955Z,11.63
2023-03-04T03:04:14.124Z,12.03
2023-03-04T03:07:03.845Z,11.87
2023-03-04T03:09:53.590Z,11.37
2023-03-04T03:12:43.303Z,11.97
2023-03-04T03:15:33.015Z,10.73
2023-03-04T03:18:24.320Z,11.43
2023-03-04T03:21:14.031Z,10.93
2023-03-04T03:24:03.721Z,11.27
2023-03-04T03:26:53.453Z,11.57
2023-03-04T03:29:43.023Z,12.47
2023-03-04T03:32:33.907Z,11.17
2023-03-04T03:35:25.152Z,11.07
2023-03-04T03:38:14.833Z,11.70
2023-03-04T03:41:04.585Z,10.47
2023-03-04T03:43:54.266Z,11.60
2023-03-04T03:46:44.654Z,10.07
2023-03-04T03:49:34.228Z,11.00
2023-03-04T03:52:25.570Z,11.20
2023-03-04T03:55:15.502Z,11.33
2023-03-04T03:58:05.032Z,10.30
2023-03-04T04:00:57.877Z,10.53
2023-03-04T04:03:47.924Z,10.70
2023-03-04T04:06:37.734Z,11.00
2023-03-04T04:09:28.826Z,11.00
2023-03-04T04:12:18.994Z,10.67
2023-03-04T04:15:10.301Z,11.50
2023-03-04T04:18:00.148Z,10.80
2023-03-04T04:20:49.702Z,11.13
2023-03-04T04:23:39.388Z,10.33
2023-03-04T04:26:30.594Z,11.23
2023-03-04T04:29:20.175Z,9.97
2023-03-04T04:32:10.699Z,10.80
2023-03-04T04:35:00.435Z,10.80
2023-03-04T04:37:50.155Z,11.07
2023-03-04T04:40:39.885Z,10.77
2023-03-04T04:43:30.931Z,10.63
2023-03-04T04:46:20.933Z,9.87
2023-03-04T04:49:11.221Z,10.50
2023-03-04T04:52:01.020Z,10.67
2023-03-04T04:54:50.681Z,10.20
2023-03-04T04:57:40.905Z,10.07
2023-03-04T05:00:31.969Z,8.80
2023-03-04T05:03:23.573Z,10.37
2023-03-04T05:06:15.111Z,10.10
2023-03-04T05:09:04.868Z,11.10
2023-03-04T05:11:54.506Z,10.63
2023-03-04T05:14:44.208Z,10.07
2023-03-04T05:17:35.262Z,10.83
2023-03-04T05:20:24.998Z,10.00
2023-03-04T05:23:14.707Z,10.03
2023-03-04T05:26:05.297Z,10.07
2023-03-04T05:28:55.038Z,10.90
2023-03-04T05:31:44.691Z,9.83
2023-03-04T05:34:35.848Z,9.77
2023-03-04T05:37:25.932Z,10.23
2023-03-04T05:40:16.233Z,10.60
2023-03-04T05:43:06.698Z,9.63
2023-03-04T05:45:56.844Z,9.53
2023-03-04T05:48:47.165Z,9.77
2023-03-04T05:51:38.290Z,9.43
2023-03-04T05:54:27.985Z,9.33
2023-03-04T05:57:17.573Z,8.80
2023-03-04T06:00:09.756Z,8.90
2023-03-04T06:02:59.475Z,8.77
2023-03-04T06:05:49.723Z,8.30
2023-03-04T06:08:41.026Z,8.40
2023-03-04T06:11:30.780Z,7.47
2023-03-04T06:14:20.508Z,7.30
2023-03-04T06:17:10.110Z,8.53
2023-03-04T06:19:59.645Z,7.57
2023-03-04T06:22:49.712Z,7.83
2023-03-04T06:25:41.016Z,6.53
2023-03-04T06:28:31.210Z,6.83
2023-03-04T06:31:20.891Z,6.93
2023-03-04T06:34:10.710Z,6.70
2023-03-04T06:37:00.289Z,7.13
2023-03-04T06:39:50.118Z,7.23
2023-03-04T06:42:42.755Z,6.40
2023-03-04T06:45:32.710Z,4.73
2023-03-04T06:48:22.198Z,5.77
2023-03-04T06:51:13.072Z,5.83
2023-03-04T06:54:02.672Z,5.73
2023-03-04T06:56:52.470Z,5.80
2023-03-04T06:59:43.913Z,5.53
2023-03-04T07:02:33.838Z,4.53
2023-03-04T07:05:23.519Z,6.60
2023-03-04T07:08:14.315Z,6.30
2023-03-04T07:11:04.078Z,6.07
2023-03-04T07:13:55.997Z,5.27
2023-03-04T07:16:48.844Z,5.57
2023-03-04T07:19:38.778Z,4.53
2023-03-04T07:22:28.967Z,4.63
2023-03-04T07:25:19.468Z,5.10
2023-03-04T07:28:09.121Z,4.33
2023-03-04T07:30:59.091Z,4.50
2023-03-04T07:33:50.194Z,3.90
2023-03-04T07:36:40.269Z,3.83
2023-03-04T07:39:30.384Z,3.53
2023-03-04T07:42:19.872Z,3.57
2023-03-04T07:45:11.011Z,3.23
2023-03-04T07:48:01.118Z,3.63
2023-03-04T07:50:52.247Z,2.67
2023-03-04T07:53:44.551Z,2.50
2023-03-04T07:56:35.702Z,2.67
2023-03-04T07:59:25.729Z,2.70
2023-03-04T08:02:16.205Z,3.07
2023-03-04T08:05:06.587Z,2.90
2023-03-04T08:07:58.316Z,2.47
2023-03-04T08:10:48.193Z,2.90
2023-03-04T08:13:38.159Z,2.60
2023-03-04T08:16:28.432Z,1.60
2023-03-04T08:19:18.070Z,2.13
2023-03-04T08:22:08.155Z,1.67
2023-03-04T08:24:59.280Z,1.70
2023-03-04T08:27:48.953Z,0.90
2023-03-04T08:30:40.567Z,3.30
2023-03-04T08:33:30.888Z,4.93
2023-03-04T08:36:20.529Z,8.70
2023-03-04T08:39:10.980Z,6.80
2023-03-04T08:42:02.150Z,9.37
2023-03-04T08:44:51.860Z,15.40
2023-03-04T08:47:43.096Z,23.60
2023-03-04T08:50:33.007Z,5.13
2023-03-04T08:53:23.060Z,2.80
2023-03-04T08:56:14.465Z,1.73
2023-03-04T08:59:05.620Z,1.40
2023-03-04T09:01:55.262Z,1.50
2023-03-04T09:04:45.170Z,1.60
2023-03-04T09:07:34.988Z,1.63
2023-03-04T09:10:24.916Z,1.60
2023-03-04T09:13:16.507Z,1.30
2023-03-04T09:16:12.839Z,1.63
2023-03-04T09:19:10.027Z,1.50
2023-03-04T09:22:09.151Z,1.40
2023-03-04T09:25:05.241Z,1.53
2023-03-04T09:28:01.473Z,1.13
2023-03-04T09:30:58.773Z,0.97
2023-03-04T09:33:49.833Z,1.60
2023-03-04T09:36:39.512Z,1.20
2023-03-04T09:39:29.290Z,1.30
2023-03-04T09:42:27.115Z,1.20
2023-03-04T09:45:21.165Z,1.13
2023-03-04T09:48:16.348Z,1.03
2023-03-04T09:51:21.610Z,0.97
2023-03-04T09:54:16.452Z,0.67
2023-03-04T09:57:23.097Z,1.00
2023-03-04T10:00:20.431Z,0.87
2023-03-04T10:03:19.578Z,1.30
2023-03-04T10:06:15.289Z,1.17
2023-03-04T10:09:07.950Z,0.40
2023-03-04T10:12:03.380Z,0.93
2023-03-04T10:14:57.788Z,1.10
2023-03-04T10:17:51.866Z,0.80
2023-03-04T10:20:52.155Z,0.80
2023-03-04T10:23:43.820Z,0.77
2023-03-04T10:26:37.236Z,0.50
2023-03-04T10:29:27.356Z,0.90
2023-03-04T10:32:19.583Z,1.10
2023-03-04T10:35:15.181Z,0.80
2023-03-04T10:38:06.968Z,1.10
2023-03-04T10:40:59.808Z,0.80
2023-03-04T10:44:02.493Z,0.80
2023-03-04T10:46:55.006Z,1.03
2023-03-04T10:49:53.777Z,1.07
2023-03-04T10:52:50.555Z,0.87
2023-03-04T10:55:46.685Z,0.67
2023-03-04T10:58:38.211Z,1.00
2023-03-04T11:01:30.713Z,0.77
2023-03-04T11:04:21.716Z,0.80
2023-03-04T11:07:12.946Z,0.80
2023-03-04T11:10:11.818Z,1.20
2023-03-04T11:13:09.606Z,1.03
2023-03-04T11:16:04.824Z,0.63
2023-03-04T11:18:56.338Z,0.77
2023-03-04T11:21:46.532Z,1.23
2023-03-04T11:24:38.877Z,1.20
2023-03-04T11:27:38.813Z,1.40
2023-03-04T11:30:36.129Z,1.17
2023-03-04T11:33:37.889Z,1.40
2023-03-04T11:36:36.406Z,0.80
2023-03-04T11:39:34.669Z,1.03
2023-03-04T11:42:33.601Z,1.07
2023-03-04T11:45:31.821Z,1.03
2023-03-04T11:48:40.130Z,0.90
2023-03-04T11:51:37.414Z,1.10
2023-03-04T11:54:37.561Z,0.97
2023-03-04T11:57:36.392Z,3.40
2023-03-04T12:00:38.274Z,5.70
2023-03-04T12:03:55.843Z,1.93
2023-03-04T12:07:02.248Z,1.20
2023-03-04T12:10:05.585Z,1.10
2023-03-04T12:13:23.915Z,2.73
2023-03-04T12:16:27.774Z,1.63
2023-03-04T12:19:29.169Z,1.87
2023-03-04T12:22:41.898Z,2.00
2023-03-04T12:25:44.391Z,1.97
2023-03-04T12:28:52.772Z,2.03
2023-03-04T12:31:44.949Z,1.00
2023-03-04T12:35:02.429Z,1.33
2023-03-04T12:38:28.049Z,1.53
2023-03-04T12:41:30.266Z,1.70
2023-03-04T12:44:21.881Z,1.73
2023-03-04T12:47:34.169Z,1.37
2023-03-04T12:50:45.135Z,1.97
2023-03-04T12:53:42.819Z,0.70
2023-03-04T12:56:44.617Z,0.97
2023-03-04T12:59:40.231Z,5.20
2023-03-04T13:02:45.257Z,6.13
2023-03-04T13:05:49.397Z,4.37
2023-03-04T13:08:48.793Z,5.97
2023-03-04T13:11:47.748Z,7.37
2023-03-04T13:14:38.848Z,3.47
2023-03-04T13:17:45.008Z,5.40
2023-03-04T13:20:39.593Z,2.00
2023-03-04T13:23:32.352Z,0.97
2023-03-04T13:26:34.247Z,1.40
2023-03-04T13:29:37.850Z,1.60
2023-03-04T13:32:39.578Z,1.90
2023-03-04T13:35:53.577Z,1.07
2023-03-04T13:38:43.732Z,4.20
2023-03-04T13:41:49.546Z,6.40
2023-03-04T13:45:05.469Z,7.00
2023-03-04T13:47:55.905Z,6.63
2023-03-04T13:50:50.188Z,10.60
2023-03-04T13:53:46.494Z,5.03
2023-03-04T13:56:37.908Z,3.97
2023-03-04T13:59:36.151Z,2.10
2023-03-04T14:02:27.988Z,3.83
2023-03-04T14:05:17.514Z,6.77
2023-03-04T14:08:20.900Z,6.60
2023-03-04T14:11:17.387Z,6.63
2023-03-04T14:14:09.459Z,6.93
2023-03-04T14:17:01.766Z,6.17
2023-03-04T14:19:53.881Z,8.37
2023-03-04T14:22:44.328Z,15.17
2023-03-04T14:25:37.108Z,6.37
2023-03-04T14:28:28.416Z,3.53
2023-03-04T14:31:21.843Z,5.53
2023-03-04T14:34:28.921Z,7.60
2023-03-04T14:37:24.368Z,3.53
2023-03-04T14:40:23.455Z,1.03
2023-03-04T14:43:19.587Z,1.30
2023-03-04T14:46:16.610Z,0.70
2023-03-04T14:49:07.116Z,0.77
2023-03-04T14:51:59.632Z,0.87
2023-03-04T14:55:04.115Z,0.80
2023-03-04T14:57:59.374Z,6.37
2023-03-04T15:00:50.764Z,2.90
2023-03-04T15:03:44.399Z,1.23
2023-03-04T15:06:37.901Z,0.80
2023-03-04T15:09:30.116Z,0.70
2023-03-04T15:12:28.524Z,0.50
2023-03-04T15:15:50.339Z,0.87
2023-03-04T15:18:54.871Z,1.07
2023-03-04T15:21:45.172Z,6.00
2023-03-04T15:24:43.531Z,6.83
2023-03-04T15:27:35.316Z,2.00
2023-03-04T15:30:27.924Z,1.37
2023-03-04T15:33:19.323Z,1.40
2023-03-04T15:36:16.670Z,1.53
2023-03-04T15:39:07.468Z,1.20
2023-03-04T15:41:57.379Z,1.07
2023-03-04T15:44:48.765Z,1.50
2023-03-04T15:47:42.944Z,4.10
2023-03-04T15:50:33.293Z,9.53
2023-03-04T15:53:31.084Z,10.40
2023-03-04T15:56:25.306Z,3.33
2023-03-04T15:59:20.108Z,1.13
2023-03-04T16:02:22.154Z,1.00
2023-03-04T16:05:16.370Z,0.53
2023-03-04T16:08:07.559Z,0.70
2023-03-04T16:11:04.467Z,0.50
2023-03-04T16:13:58.117Z,0.87
2023-03-04T16:16:51.346Z,0.57
2023-03-04T16:19:42.716Z,0.87
2023-03-04T16:22:33.926Z,0.80
2023-03-04T16:25:25.305Z,0.80
2023-03-04T16:28:18.532Z,0.67
2023-03-04T16:31:09.761Z,1.00
2023-03-04T16:34:00.636Z,0.80
2023-03-04T16:36:54.836Z,0.60
2023-03-04T16:39:46.584Z,1.00
2023-03-04T16:42:37.250Z,0.83
2023-03-04T16:45:31.473Z,0.80
2023-03-04T16:48:23.451Z,0.90
2023-03-04T16:51:17.337Z,0.70
2023-03-04T16:54:09.321Z,1.03
2023-03-04T16:56:59.925Z,1.13
2023-03-04T16:59:51.513Z,1.00
2023-03-04T17:02:46.787Z,1.00
2023-03-04T17:05:37.732Z,0.93
2023-03-04T17:08:27.906Z,1.60
2023-03-04T17:11:21.295Z,1.33
2023-03-04T17:14:11.500Z,1.10
2023-03-04T17:17:03.988Z,1.40
2023-03-04T17:19:55.886Z,1.17
2023-03-04T17:22:47.128Z,0.87
2023-03-04T17:25:41.327Z,1.10
2023-03-04T17:28:33.255Z,1.13
2023-03-04T17:31:24.488Z,1.00
2023-03-04T17:34:16.467Z,0.77
2023-03-04T17:37:09.931Z,1.60
2023-03-04T17:40:01.276Z,1.47
2023-03-04T17:42:58.369Z,0.83
2023-03-04T17:45:50.174Z,1.10
2023-03-04T17:48:42.438Z,1.10
2023-03-04T17:51:35.912Z,1.27
2023-03-04T17:54:29.426Z,1.03
2023-03-04T17:57:21.308Z,1.00
2023-03-04T18:00:14.507Z,1.17
2023-03-04T18:03:06.990Z,0.90
2023-03-04T18:05:59.919Z,1.50
2023-03-04T18:08:50.534Z,1.40
2023-03-04T18:11:44.828Z,1.10
2023-03-04T18:14:36.930Z,1.20
2023-03-04T18:17:31.192Z,1.20
2023-03-04T18:20:23.962Z,0.97
2023-03-04T18:23:15.184Z,1.27
2023-03-04T18:26:06.830Z,1.00
2023-03-04T18:29:02.601Z,0.97
2023-03-04T18:31:54.911Z,1.20
2023-03-04T18:34:46.433Z,5.13
2023-03-04T18:37:38.816Z,1.50
2023-03-04T18:40:30.709Z,1.10
2023-03-04T18:43:21.750Z,1.20
2023-03-04T18:46:23.630Z,1.67
2023-03-04T18:49:22.009Z,1.40
2023-03-04T18:52:17.819Z,1.40
2023-03-04T18:55:17.873Z,1.10
2023-03-04T18:58:13.723Z,0.73
2023-03-04T19:01:12.917Z,1.20
2023-03-04T19:04:20.298Z,1.30
2023-03-04T19:07:17.644Z,1.60
2023-03-04T19:10:15.744Z,1.47
2023-03-04T19:13:08.369Z,1.30
2023-03-04T19:16:11.502Z,1.50
2023-03-04T19:19:11.418Z,1.60
2023-03-04T19:22:05.773Z,1.53
2023-03-04T19:24:57.921Z,1.50
2023-03-04T19:27:49.038Z,1.30
2023-03-04T19:30:40.317Z,0.97
2023-03-04T19:33:31.386Z,1.20
2023-03-04T19:36:24.550Z,1.40
2023-03-04T19:39:16.792Z,1.50
2023-03-04T19:42:08.011Z,1.53
2023-03-04T19:45:08.912Z,1.40
2023-03-04T19:48:04.105Z,1.10
2023-03-04T19:50:56.573Z,1.33
2023-03-04T19:53:50.230Z,1.17
2023-03-04T19:56:41.992Z,1.30
2023-03-04T19:59:35.138Z,1.60
2023-03-04T20:02:27.949Z,1.50
2023-03-04T20:05:19.635Z,1.07
2023-03-04T20:08:12.857Z,1.10
2023-03-04T20:11:10.198Z,1.40
2023-03-04T20:14:02.898Z,1.33
2023-03-04T20:16:54.145Z,1.20
2023-03-04T20:19:47.499Z,1.20
2023-03-04T20:22:40.583Z,0.90
2023-03-04T20:25:34.092Z,1.27
2023-03-04T20:28:27.290Z,1.30
2023-03-04T20:31:23.718Z,1.50
2023-03-04T20:34:18.368Z,1.20
2023-03-04T20:37:11.594Z,1.20
2023-03-04T20:40:04.969Z,2.90
2023-03-04T20:42:55.912Z,1.50
2023-03-04T20:45:50.696Z,1.50
2023-03-04T20:48:41.690Z,1.50
2023-03-04T20:51:33.203Z,1.27
2023-03-04T20:54:25.341Z,1.37
2023-03-04T20:57:16.123Z,1.40
2023-03-04T21:00:09.777Z,1.30
2023-03-04T21:03:02.178Z,1.30
2023-03-04T21:05:52.563Z,1.30
2023-03-04T21:08:43.627Z,0.90
2023-03-04T21:11:40.426Z,1.10
2023-03-04T21:14:32.920Z,1.40
2023-03-04T21:17:26.667Z,1.40
2023-03-04T21:20:18.666Z,1.40
2023-03-04T21:23:09.266Z,1.10
2023-03-04T21:26:00.977Z,1.00
2023-03-04T21:28:51.926Z,0.90
2023-03-04T21:31:46.772Z,1.17
2023-03-04T21:34:40.484Z,1.73
2023-03-04T21:37:32.451Z,1.17
2023-03-04T21:40:22.741Z,1.07
2023-03-04T21:43:12.840Z,0.97
2023-03-04T21:46:03.048Z,1.63
2023-03-04T21:48:52.992Z,1.00
2023-03-04T21:51:45.272Z,1.20
2023-03-04T21:54:36.813Z,1.10
2023-03-04T21:57:29.103Z,1.07
2023-03-04T22:00:19.933Z,1.03
2023-03-04T22:03:10.259Z,1.30
2023-03-04T22:06:00.237Z,1.00
2023-03-04T22:08:50.401Z,1.20
2023-03-04T22:11:41.571Z,1.07
2023-03-04T22:14:34.360Z,0.70
2023-03-04T22:17:24.745Z,1.00
2023-03-04T22:20:16.193Z,1.10
2023-03-04T22:23:06.312Z,1.00
2023-03-04T22:25:56.509Z,1.10
2023-03-04T22:28:48.029Z,1.10
2023-03-04T22:31:39.603Z,1.50
2023-03-04T22:34:29.307Z,1.00
2023-03-04T22:37:18.910Z,0.93
2023-03-04T22:40:11.446Z,1.00
2023-03-04T22:43:01.357Z,0.90
2023-03-04T22:45:53.102Z,0.80
2023-03-04T22:48:42.710Z,1.20
2023-03-04T22:51:32.911Z,0.90
2023-03-04T22:54:22.574Z,1.10
2023-03-04T22:57:12.248Z,0.70
2023-03-04T23:00:02.271Z,0.83
2023-03-04T23:02:54.125Z,0.90
2023-03-04T23:05:44.174Z,0.63
2023-03-04T23:08:34.130Z,0.97
2023-03-04T23:11:27.125Z,1.20
2023-03-04T23:14:16.669Z,1.10
2023-03-04T23:17:06.542Z,1.10
2023-03-04T23:19:57.900Z,0.93
2023-03-04T23:22:48.320Z,1.07
2023-03-04T23:25:38.227Z,1.10
2023-03-04T23:28:27.927Z,0.87
2023-03-04T23:31:19.538Z,0.90
2023-03-04T23:34:09.502Z,1.00
2023-03-04T23:37:00.902Z,0.80
2023-03-04T23:39:50.971Z,1.00
2023-03-04T23:42:41.248Z,0.50
2023-03-04T23:45:31.142Z,0.90
2023-03-04T23:48:20.685Z,0.87
2023-03-04T23:51:11.738Z,0.90
2023-03-04T23:54:03.407Z,0.97
2023-03-04T23:56:52.986Z,1.00
2023-03-04T23:59:42.574Z,1.33
